createdAt,value
2019-02-21T00:01:19.104Z,101699.85
2019-02-21T00:03:25.274Z,101699.85
2019-02-21T00:05:31.422Z,101699.39
2019-02-21T00:07:37.567Z,101704.20
2019-02-21T00:09:43.725Z,101701.17
2019-02-21T00:11:49.903Z,101701.20
2019-02-21T00:13:56.125Z,101696.91
2019-02-21T00:16:02.207Z,101696.94
2019-02-21T00:18:08.465Z,101703.89
2019-02-21T00:20:15.848Z,101705.70
2019-02-21T00:22:22.128Z,101710.92
2019-02-21T00:24:28.362Z,101704.03
2019-02-21T00:26:34.616Z,101709.68
2019-02-21T00:28:40.788Z,101708.37
2019-02-21T00:30:47.016Z,101710.16
2019-02-21T00:32:53.292Z,101705.83
2019-02-21T00:34:59.463Z,101708.88
2019-02-21T00:37:05.723Z,101704.59
2019-02-21T00:39:11.929Z,101706.79
2019-02-21T00:41:18.149Z,101706.80
2019-02-21T00:43:24.467Z,101702.06
2019-02-21T00:45:30.721Z,101702.50
2019-02-21T00:47:37.026Z,101702.95
2019-02-21T00:49:43.214Z,101707.73
2019-02-21T00:51:49.444Z,101707.31
2019-02-21T00:53:55.606Z,101707.31
2019-02-21T00:56:01.863Z,101714.23
2019-02-21T00:58:08.125Z,101712.08
2019-02-21T01:00:15.290Z,101714.26
2019-02-21T01:02:21.566Z,101704.76
2019-02-21T01:04:27.823Z,101700.42
2019-02-21T01:06:33.985Z,101700.88
2019-02-21T01:08:40.255Z,101703.08
2019-02-21T01:10:46.323Z,101697.45
2019-02-21T01:12:52.764Z,101697.87
2019-02-21T01:14:58.903Z,101693.98
2019-02-21T01:17:05.084Z,101688.38
2019-02-21T01:19:11.346Z,101691.00
2019-02-21T01:21:17.584Z,101692.76
2019-02-21T01:23:23.763Z,101690.16
2019-02-21T01:25:30.002Z,101685.80
2019-02-21T01:27:36.259Z,101692.33
2019-02-21T01:29:43.962Z,101675.87
2019-02-21T01:31:50.203Z,101684.56
2019-02-21T01:33:56.365Z,101679.78
2019-02-21T01:36:02.442Z,101681.51
2019-02-21T01:38:08.703Z,101684.14
2019-02-21T01:40:15.984Z,101676.78
2019-02-21T01:42:22.244Z,101677.63
2019-02-21T01:44:28.502Z,101674.59
2019-02-21T01:46:34.665Z,101685.48
2019-02-21T01:48:40.831Z,101681.98
2019-02-21T01:50:47.089Z,101682.42
2019-02-21T01:52:53.445Z,101679.39
2019-02-21T01:54:59.703Z,101677.66
2019-02-21T01:57:05.873Z,101681.99
2019-02-21T01:59:12.022Z,101680.27
2019-02-21T02:01:18.165Z,101677.69
2019-02-21T02:03:24.247Z,101678.98
2019-02-21T02:05:30.285Z,101681.61
2019-02-21T02:07:36.426Z,101669.02
2019-02-21T02:09:42.602Z,101667.72
2019-02-21T02:11:50.418Z,101669.89
2019-02-21T02:13:56.668Z,101668.59
2019-02-21T02:16:02.923Z,101663.80
2019-02-21T02:18:09.166Z,101665.55
2019-02-21T02:20:15.543Z,101666.42
2019-02-21T02:22:21.703Z,101666.84
2019-02-21T02:24:27.968Z,101666.41
2019-02-21T02:26:34.222Z,101668.16
2019-02-21T02:28:40.262Z,101669.03
2019-02-21T02:30:46.425Z,101664.72
2019-02-21T02:32:52.583Z,101670.81
2019-02-21T02:34:59.937Z,101671.22
2019-02-21T02:37:06.345Z,101669.50
2019-02-21T02:39:12.603Z,101666.49
2019-02-21T02:41:18.843Z,101668.64
2019-02-21T02:43:25.004Z,101667.36
2019-02-21T02:45:32.306Z,101662.16
2019-02-21T02:47:38.568Z,101662.61
2019-02-21T02:49:44.816Z,101663.91
2019-02-21T02:51:51.062Z,101662.16
2019-02-21T02:53:57.026Z,101664.76
2019-02-21T02:56:03.185Z,101666.51
2019-02-21T02:58:09.322Z,101662.17
2019-02-21T03:00:16.539Z,101667.82
2019-02-21T03:02:22.790Z,101664.78
2019-02-21T03:04:29.328Z,101670.44
2019-02-21T03:06:35.939Z,101666.98
2019-02-21T03:08:42.159Z,101667.41
2019-02-21T03:10:48.343Z,101670.87
2019-02-21T03:12:54.542Z,101660.89
2019-02-21T03:15:00.979Z,101663.92
2019-02-21T03:17:07.126Z,101664.37
2019-02-21T03:19:13.387Z,101657.41
2019-02-21T03:21:19.643Z,101660.89
2019-02-21T03:23:25.805Z,101661.34
2019-02-21T03:25:32.055Z,101659.61
2019-02-21T03:27:38.309Z,101654.83
2019-02-21T03:29:44.483Z,101658.73
2019-02-21T03:31:55.238Z,101659.19
2019-02-21T03:33:58.525Z,101663.95
2019-02-21T03:36:04.801Z,101664.39
2019-02-21T03:38:11.033Z,101660.91
2019-02-21T03:40:17.191Z,101656.15
2019-02-21T03:42:23.359Z,101656.17
2019-02-21T03:44:29.607Z,101660.49
2019-02-21T03:46:35.782Z,101660.09
2019-02-21T03:48:42.343Z,101663.11
2019-02-21T03:50:48.616Z,101658.78
2019-02-21T03:52:54.855Z,101652.25
2019-02-21T03:55:01.034Z,101654.88
2019-02-21T03:57:08.858Z,101659.23
2019-02-21T03:59:15.195Z,101657.92
2019-02-21T04:01:21.462Z,101647.08
2019-02-21T04:03:27.592Z,101646.66
2019-02-21T04:05:33.956Z,101645.80
2019-02-21T04:07:40.134Z,101648.01
2019-02-21T04:09:46.376Z,101649.31
2019-02-21T04:11:52.549Z,101643.66
2019-02-21T04:13:58.703Z,101642.34
2019-02-21T04:16:05.278Z,101648.00
2019-02-21T04:18:12.564Z,101641.06
2019-02-21T04:20:18.814Z,101644.14
2019-02-21T04:22:24.961Z,101641.13
2019-02-21T04:24:31.035Z,101635.88
2019-02-21T04:26:37.278Z,101633.33
2019-02-21T04:28:45.814Z,101633.75
2019-02-21T04:30:52.273Z,101638.93
2019-02-21T04:32:58.521Z,101636.36
2019-02-21T04:35:05.512Z,101629.00
2019-02-21T04:37:11.758Z,101632.44
2019-02-21T04:39:18.016Z,101626.81
2019-02-21T04:41:24.179Z,101628.53
2019-02-21T04:43:30.436Z,101625.06
2019-02-21T04:45:36.743Z,101616.42
2019-02-21T04:47:43.053Z,101622.11
2019-02-21T04:49:49.324Z,101622.08
2019-02-21T04:51:56.031Z,101622.52
2019-02-21T04:54:02.246Z,101620.39
2019-02-21T04:56:08.411Z,101619.50
2019-02-21T04:58:14.668Z,101613.00
2019-02-21T05:00:20.879Z,101610.83
2019-02-21T05:02:29.735Z,101615.17
2019-02-21T05:04:37.513Z,101607.38
2019-02-21T05:06:43.902Z,101610.84
2019-02-21T05:08:50.039Z,101609.08
2019-02-21T05:10:56.134Z,101607.80
2019-02-21T05:13:02.264Z,101612.14
2019-02-21T05:15:08.638Z,101607.78
2019-02-21T05:17:14.915Z,101603.02
2019-02-21T05:19:21.155Z,101603.02
2019-02-21T05:21:27.421Z,101603.02
2019-02-21T05:23:36.697Z,101601.27
2019-02-21T05:25:41.887Z,101599.53
2019-02-21T05:27:50.486Z,101598.67
2019-02-21T05:29:56.756Z,101598.23
2019-02-21T05:32:07.416Z,101592.59
2019-02-21T05:34:15.251Z,101603.45
2019-02-21T05:36:23.014Z,101598.66
2019-02-21T05:38:36.458Z,101603.89
2019-02-21T05:40:53.565Z,101602.58
2019-02-21T05:43:16.805Z,101604.33
2019-02-21T05:45:39.532Z,101612.56
2019-02-21T05:47:57.502Z,101609.11
2019-02-21T05:50:18.807Z,101600.84
2019-02-21T05:52:26.808Z,101603.42
2019-02-21T05:54:34.639Z,101604.30
2019-02-21T05:56:45.335Z,101601.71
2019-02-21T05:58:54.202Z,101609.08
2019-02-21T06:01:09.368Z,101605.19
2019-02-21T06:03:29.016Z,101601.72
2019-02-21T06:05:39.587Z,101598.23
2019-02-21T06:07:56.397Z,101600.83
2019-02-21T06:10:20.274Z,101601.70
2019-02-21T06:12:33.988Z,101603.87
2019-02-21T06:14:43.238Z,101602.59
2019-02-21T06:17:06.296Z,101605.20
2019-02-21T06:19:14.104Z,101609.97
2019-02-21T06:21:21.906Z,101609.97
2019-02-21T06:23:44.925Z,101611.67
2019-02-21T06:25:59.385Z,101616.44
2019-02-21T06:28:19.163Z,101618.16
2019-02-21T06:30:26.953Z,101619.47
2019-02-21T06:32:34.753Z,101620.77
2019-02-21T06:34:40.780Z,101621.21
2019-02-21T06:36:47.188Z,101627.73
2019-02-21T06:38:53.331Z,101625.53
2019-02-21T06:40:59.530Z,101623.36
2019-02-21T06:43:05.773Z,101624.23
2019-02-21T06:45:13.361Z,101614.33
2019-02-21T06:47:19.507Z,101616.04
2019-02-21T06:49:32.677Z,101617.34
2019-02-21T06:51:33.449Z,101606.05
2019-02-21T06:53:39.710Z,101610.84
2019-02-21T06:55:45.811Z,101605.16
2019-02-21T06:57:52.034Z,101615.59
2019-02-21T06:59:57.989Z,101616.02
2019-02-21T07:02:04.254Z,101621.23
2019-02-21T07:04:10.400Z,101614.71
2019-02-21T07:06:16.405Z,101617.33
2019-02-21T07:08:25.089Z,101613.87
2019-02-21T07:10:30.519Z,101612.13
2019-02-21T07:12:36.570Z,101619.06
2019-02-21T07:14:43.848Z,101612.56
2019-02-21T07:16:50.007Z,101615.16
2019-02-21T07:18:56.199Z,101615.61
2019-02-21T07:21:02.381Z,101619.09
2019-02-21T07:23:11.065Z,101615.61
2019-02-21T07:25:36.052Z,101617.37
2019-02-21T07:27:42.287Z,101619.53
2019-02-21T07:29:48.772Z,101622.12
2019-02-21T07:31:54.931Z,101621.69
2019-02-21T07:34:02.148Z,101625.61
2019-02-21T07:36:11.067Z,101623.84
2019-02-21T07:38:17.218Z,101628.65
2019-02-21T07:40:23.784Z,101624.72
2019-02-21T07:42:30.019Z,101621.23
2019-02-21T07:44:36.271Z,101626.47
2019-02-21T07:46:42.443Z,101628.62
2019-02-21T07:48:48.609Z,101622.55
2019-02-21T07:50:54.758Z,101623.86
2019-02-21T07:53:02.703Z,101616.47
2019-02-21T07:55:10.644Z,101619.51
2019-02-21T07:57:17.129Z,101615.19
2019-02-21T07:59:23.492Z,101615.59
2019-02-21T08:01:29.751Z,101612.13
2019-02-21T08:03:44.428Z,101619.09
2019-02-21T08:05:43.901Z,101606.94
2019-02-21T08:07:50.059Z,101608.66
2019-02-21T08:09:56.425Z,101607.80
2019-02-21T08:12:02.703Z,101607.36
2019-02-21T08:14:08.947Z,101607.36
2019-02-21T08:16:15.212Z,101604.75
2019-02-21T08:18:21.350Z,101600.86
2019-02-21T08:20:34.034Z,101608.21
2019-02-21T08:22:35.629Z,101607.36
2019-02-21T08:24:41.800Z,101602.58
2019-02-21T08:26:47.940Z,101605.20
2019-02-21T08:28:54.112Z,101606.91
2019-02-21T08:31:00.353Z,101608.65
2019-02-21T08:33:09.189Z,101607.79
2019-02-21T08:35:15.451Z,101599.98
2019-02-21T08:37:21.688Z,101600.85
2019-02-21T08:39:27.979Z,101599.53
2019-02-21T08:41:34.213Z,101596.50
2019-02-21T08:43:40.374Z,101596.06
2019-02-21T08:45:46.535Z,101598.65
2019-02-21T08:47:52.913Z,101594.75
2019-02-21T08:49:59.869Z,101594.31
2019-02-21T08:52:06.343Z,101592.56
2019-02-21T08:54:12.610Z,101590.81
2019-02-21T08:56:18.866Z,101589.08
2019-02-21T08:58:26.063Z,101581.23
2019-02-21T09:00:32.296Z,101587.77
2019-02-21T09:02:38.586Z,101584.70
2019-02-21T09:04:44.813Z,101579.95
2019-02-21T09:06:51.000Z,101586.48
2019-02-21T09:08:57.336Z,101582.98
2019-02-21T09:11:04.248Z,101583.88
2019-02-21T09:13:10.300Z,101585.17
2019-02-21T09:15:18.236Z,101579.09
2019-02-21T09:17:24.424Z,101582.55
2019-02-21T09:19:30.692Z,101582.13
2019-02-21T09:21:36.976Z,101579.97
2019-02-21T09:23:42.981Z,101584.30
2019-02-21T09:25:49.705Z,101578.22
2019-02-21T09:27:56.128Z,101579.52
2019-02-21T09:30:04.980Z,101578.23
2019-02-21T09:32:10.071Z,101574.30
2019-02-21T09:34:21.256Z,101574.31
2019-02-21T09:36:23.784Z,101574.31
2019-02-21T09:38:29.837Z,101573.86
2019-02-21T09:40:35.911Z,101573.45
2019-02-21T09:42:41.910Z,101568.64
2019-02-21T09:44:49.750Z,101573.44
2019-02-21T09:46:56.081Z,101575.17
2019-02-21T09:49:03.001Z,101573.42
2019-02-21T09:51:09.423Z,101572.53
2019-02-21T09:53:15.668Z,101572.52
2019-02-21T09:55:21.825Z,101568.16
2019-02-21T09:57:27.876Z,101573.38
2019-02-21T09:59:34.042Z,101570.33
2019-02-21T10:01:40.299Z,101572.92
2019-02-21T10:03:46.546Z,101566.84
2019-02-21T10:05:52.730Z,101568.58
2019-02-21T10:07:58.989Z,101571.64
2019-02-21T10:10:08.214Z,101572.94
2019-02-21T10:12:14.487Z,101566.84
2019-02-21T10:14:21.566Z,101567.73
2019-02-21T10:16:27.916Z,101564.69
2019-02-21T10:18:34.082Z,101565.98
2019-02-21T10:20:40.335Z,101561.22
2019-02-21T10:22:46.586Z,101562.95
2019-02-21T10:24:53.264Z,101560.32
2019-02-21T10:26:59.520Z,101554.68
2019-02-21T10:29:05.984Z,101547.73
2019-02-21T10:31:12.240Z,101551.65
2019-02-21T10:33:18.410Z,101543.81
2019-02-21T10:35:24.563Z,101542.48
2019-02-21T10:37:30.814Z,101538.14
2019-02-21T10:39:38.188Z,101539.83
2019-02-21T10:41:44.352Z,101534.64
2019-02-21T10:43:50.548Z,101532.86
2019-02-21T10:45:56.794Z,101534.17
2019-02-21T10:48:02.939Z,101534.18
2019-02-21T10:50:14.212Z,101529.38
2019-02-21T10:52:20.591Z,101531.11
2019-02-21T10:54:28.061Z,101525.46
2019-02-21T10:56:34.132Z,101517.63
2019-02-21T10:58:40.387Z,101517.64
2019-02-21T11:00:46.649Z,101517.67
2019-02-21T11:02:52.794Z,101520.71
2019-02-21T11:04:58.924Z,101508.54
2019-02-21T11:07:04.996Z,101515.52
2019-02-21T11:09:15.587Z,101512.05
2019-02-21T11:11:21.830Z,101521.61
2019-02-21T11:13:28.009Z,101508.58
2019-02-21T11:15:34.254Z,101511.15
2019-02-21T11:17:41.311Z,101508.09
2019-02-21T11:19:47.389Z,101506.34
2019-02-21T11:21:53.442Z,101501.55
2019-02-21T11:23:59.633Z,101504.14
2019-02-21T11:26:05.749Z,101498.05
2019-02-21T11:28:11.818Z,101501.96
2019-02-21T11:30:23.013Z,101500.22
2019-02-21T11:32:29.164Z,101499.78
2019-02-21T11:34:37.981Z,101497.16
2019-02-21T11:36:43.296Z,101489.30
2019-02-21T11:38:49.347Z,101484.97
2019-02-21T11:40:55.494Z,101487.13
2019-02-21T11:43:02.623Z,101480.13
2019-02-21T11:45:13.089Z,101479.63
2019-02-21T11:47:19.304Z,101475.69
2019-02-21T11:49:25.481Z,101477.82
2019-02-21T11:51:31.564Z,101477.80
2019-02-21T11:53:38.570Z,101475.19
2019-02-21T11:55:44.865Z,101476.03
2019-02-21T11:57:51.017Z,101473.45
2019-02-21T11:59:57.174Z,101476.50
2019-02-21T12:02:03.326Z,101472.17
2019-02-21T12:04:09.405Z,101471.70
2019-02-21T12:06:16.688Z,101472.55
2019-02-21T12:08:23.952Z,101472.58
2019-02-21T12:10:30.126Z,101473.03
2019-02-21T12:12:36.314Z,101473.48
2019-02-21T12:14:42.548Z,101471.34
2019-02-21T12:16:48.791Z,101474.81
2019-02-21T12:18:54.866Z,101468.73
2019-02-21T12:21:01.021Z,101470.44
2019-02-21T12:23:07.217Z,101471.81
2019-02-21T12:25:17.324Z,101467.02
2019-02-21T12:27:23.369Z,101464.42
2019-02-21T12:29:29.661Z,101464.84
2019-02-21T12:31:35.904Z,101462.65
2019-02-21T12:33:42.918Z,101464.83
2019-02-21T12:35:49.147Z,101457.41
2019-02-21T12:37:55.127Z,101460.45
2019-02-21T12:40:01.349Z,101457.39
2019-02-21T12:42:07.839Z,101459.53
2019-02-21T12:44:14.957Z,101449.50
2019-02-21T12:46:21.035Z,101456.02
2019-02-21T12:48:27.215Z,101453.84
2019-02-21T12:50:43.630Z,101451.67
2019-02-21T12:52:41.393Z,101455.16
2019-02-21T12:54:47.528Z,101452.55
2019-02-21T12:56:53.691Z,101450.33
2019-02-21T12:58:59.828Z,101455.98
2019-02-21T13:01:06.012Z,101452.52
2019-02-21T13:03:12.251Z,101447.76
2019-02-21T13:05:18.330Z,101446.92
2019-02-21T13:07:24.570Z,101450.81
2019-02-21T13:09:30.630Z,101445.56
2019-02-21T13:11:36.897Z,101445.11
2019-02-21T13:13:43.750Z,101448.97
2019-02-21T13:15:49.915Z,101444.59
2019-02-21T13:17:57.015Z,101448.09
2019-02-21T13:20:03.173Z,101452.02
2019-02-21T13:22:09.326Z,101445.92
2019-02-21T13:24:15.492Z,101449.41
2019-02-21T13:26:21.731Z,101446.41
2019-02-21T13:28:27.854Z,101450.77
2019-02-21T13:30:34.167Z,101447.27
2019-02-21T13:32:40.362Z,101447.34
2019-02-21T13:34:46.579Z,101452.59
2019-02-21T13:36:52.721Z,101451.28
2019-02-21T13:38:58.891Z,101450.01
2019-02-21T13:41:04.994Z,101450.00
2019-02-21T13:43:10.937Z,101452.62
2019-02-21T13:45:18.628Z,101449.98
2019-02-21T13:47:24.844Z,101442.61
2019-02-21T13:49:30.922Z,101447.37
2019-02-21T13:51:37.297Z,101450.45
2019-02-21T13:53:43.531Z,101452.59
2019-02-21T13:55:51.015Z,101447.39
2019-02-21T13:57:57.410Z,101449.55
2019-02-21T14:00:04.066Z,101445.20
2019-02-21T14:02:11.757Z,101448.68
2019-02-21T14:04:18.016Z,101446.50
2019-02-21T14:06:24.198Z,101446.91
2019-02-21T14:08:30.423Z,101446.05
2019-02-21T14:10:36.696Z,101440.39
2019-02-21T14:12:43.056Z,101439.52
2019-02-21T14:14:49.315Z,101440.36
2019-02-21T14:16:55.479Z,101435.58
2019-02-21T14:19:01.644Z,101429.89
2019-02-21T14:21:07.890Z,101437.16
2019-02-21T14:23:14.153Z,101440.16
2019-02-21T14:25:20.618Z,101432.31
2019-02-21T14:27:26.880Z,101429.30
2019-02-21T14:29:39.226Z,101431.39
2019-02-21T14:31:41.031Z,101430.49
2019-02-21T14:33:47.192Z,101422.70
2019-02-21T14:35:53.457Z,101424.80
2019-02-21T14:37:59.601Z,101423.55
2019-02-21T14:40:09.140Z,101423.14
2019-02-21T14:42:15.330Z,101419.13
2019-02-21T14:44:21.580Z,101423.98
2019-02-21T14:46:27.930Z,101424.88
2019-02-21T14:48:34.082Z,101421.92
2019-02-21T14:50:40.344Z,101427.14
2019-02-21T14:52:46.615Z,101424.56
2019-02-21T14:54:54.409Z,101416.31
2019-02-21T14:57:00.778Z,101421.09
2019-02-21T14:59:07.057Z,101421.56
2019-02-21T15:01:13.489Z,101422.90
2019-02-21T15:03:22.183Z,101423.77
2019-02-21T15:05:27.555Z,101417.23
2019-02-21T15:07:36.862Z,101416.39
2019-02-21T15:09:45.411Z,101413.37
2019-02-21T15:11:50.964Z,101414.23
2019-02-21T15:13:57.175Z,101409.02
2019-02-21T15:16:03.579Z,101405.56
2019-02-21T15:18:11.308Z,101405.56
2019-02-21T15:20:19.471Z,101401.64
2019-02-21T15:22:25.840Z,101400.33
2019-02-21T15:24:33.127Z,101402.95
2019-02-21T15:26:40.898Z,101399.90
2019-02-21T15:29:09.523Z,101392.09
2019-02-21T15:31:15.869Z,101398.59
2019-02-21T15:33:22.109Z,101394.27
2019-02-21T15:35:28.465Z,101394.30
2019-02-21T15:37:34.830Z,101394.30
2019-02-21T15:39:42.914Z,101396.47
2019-02-21T15:41:48.998Z,101394.73
2019-02-21T15:43:56.893Z,101400.39
2019-02-21T15:46:03.157Z,101400.82
2019-02-21T15:48:09.824Z,101407.78
2019-02-21T15:50:19.708Z,101405.20
2019-02-21T15:52:25.065Z,101404.77
2019-02-21T15:54:34.496Z,101410.86
2019-02-21T15:56:41.940Z,101410.42
2019-02-21T15:58:48.174Z,101406.91
2019-02-21T16:00:54.548Z,101408.66
2019-02-21T16:03:02.554Z,101401.25
2019-02-21T16:05:09.900Z,101409.09
2019-02-21T16:07:16.310Z,101399.08
2019-02-21T16:09:25.369Z,101409.09
2019-02-21T16:11:31.911Z,101404.73
2019-02-21T16:13:40.469Z,101411.30
2019-02-21T16:15:48.842Z,101411.30
2019-02-21T16:17:55.282Z,101410.39
2019-02-21T16:20:01.644Z,101413.03
2019-02-21T16:22:08.545Z,101411.30
2019-02-21T16:24:16.761Z,101407.81
2019-02-21T16:26:23.092Z,101407.81
2019-02-21T16:28:30.778Z,101407.81
2019-02-21T16:30:37.304Z,101406.94
2019-02-21T16:32:43.929Z,101407.38
2019-02-21T16:34:50.377Z,101401.74
2019-02-21T16:37:02.468Z,101406.06
2019-02-21T16:39:08.862Z,101401.71
2019-02-21T16:41:15.594Z,101403.05
2019-02-21T16:43:22.192Z,101400.00
2019-02-21T16:45:42.909Z,101402.20
2019-02-21T16:47:39.698Z,101395.66
2019-02-21T16:49:46.142Z,101397.84
2019-02-21T16:51:54.052Z,101400.48
2019-02-21T16:54:00.238Z,101393.52
2019-02-21T16:56:06.892Z,101390.47
2019-02-21T16:58:13.225Z,101403.50
2019-02-21T17:00:21.906Z,101400.02
2019-02-21T17:02:28.674Z,101400.02
2019-02-21T17:04:35.023Z,101401.33
2019-02-21T17:06:41.288Z,101400.89
2019-02-21T17:08:47.866Z,101401.77
2019-02-21T17:10:54.418Z,101400.03
2019-02-21T17:13:02.233Z,101403.91
2019-02-21T17:15:13.532Z,101401.30
2019-02-21T17:17:19.986Z,101401.74
2019-02-21T17:19:27.864Z,101405.66
2019-02-21T17:21:34.579Z,101411.28
2019-02-21T17:23:40.996Z,101410.85
2019-02-21T17:25:47.321Z,101404.77
2019-02-21T17:27:53.621Z,101403.89
2019-02-21T17:30:00.157Z,101404.77
2019-02-21T17:32:07.026Z,101403.45
2019-02-21T17:34:13.418Z,101399.98
2019-02-21T17:36:19.779Z,101403.45
2019-02-21T17:38:26.449Z,101410.39
2019-02-21T17:40:34.456Z,101400.38
2019-02-21T17:42:40.813Z,101397.77
2019-02-21T17:44:48.122Z,101399.52
2019-02-21T17:46:56.333Z,101398.62
2019-02-21T17:49:03.210Z,101397.75
2019-02-21T17:51:09.852Z,101396.03
2019-02-21T17:53:16.421Z,101393.42
2019-02-21T17:55:23.126Z,101391.22
2019-02-21T17:57:29.891Z,101393.83
2019-02-21T17:59:39.740Z,101390.38
2019-02-21T18:01:46.613Z,101386.02
2019-02-21T18:03:52.963Z,101387.77
2019-02-21T18:05:59.536Z,101389.91
2019-02-21T18:08:06.222Z,101392.52
2019-02-21T18:10:19.811Z,101388.17
2019-02-21T18:12:27.232Z,101387.33
2019-02-21T18:14:35.183Z,101387.33
2019-02-21T18:16:42.082Z,101383.38
2019-02-21T18:18:48.452Z,101385.16
2019-02-21T18:20:57.807Z,101379.47
2019-02-21T18:23:05.712Z,101378.63
2019-02-21T18:25:31.518Z,101378.59
2019-02-21T18:27:37.879Z,101379.03
2019-02-21T18:29:44.650Z,101376.41
2019-02-21T18:31:52.622Z,101380.34
2019-02-21T18:33:59.457Z,101380.34
2019-02-21T18:36:06.212Z,101378.16
2019-02-21T18:38:12.976Z,101380.34
2019-02-21T18:40:27.843Z,101381.20
2019-02-21T18:42:34.310Z,101379.47
2019-02-21T18:44:40.981Z,101376.86
2019-02-21T18:46:48.756Z,101375.96
2019-02-21T18:48:55.654Z,101373.34
2019-02-21T18:51:02.423Z,101381.16
2019-02-21T18:53:09.070Z,101373.75
2019-02-21T18:55:16.234Z,101378.55
2019-02-21T18:57:22.745Z,101378.55
2019-02-21T18:59:31.901Z,101378.98
2019-02-21T19:01:39.524Z,101381.16
2019-02-21T19:03:46.096Z,101378.11
2019-02-21T19:05:55.272Z,101377.23
2019-02-21T19:08:05.496Z,101382.46
2019-02-21T19:10:17.852Z,101379.41
2019-02-21T19:12:24.582Z,101376.36
2019-02-21T19:14:33.312Z,101379.84
2019-02-21T19:16:40.092Z,101381.16
2019-02-21T19:18:46.622Z,101374.62
2019-02-21T19:20:56.474Z,101384.20
2019-02-21T19:23:03.244Z,101383.73
2019-02-21T19:25:12.049Z,101378.98
2019-02-21T19:27:18.880Z,101388.09
2019-02-21T19:29:25.482Z,101377.64
2019-02-21T19:31:32.032Z,101380.69
2019-02-21T19:33:41.613Z,101378.08
2019-02-21T19:35:48.667Z,101378.08
2019-02-21T19:37:56.783Z,101380.69
2019-02-21T19:40:03.467Z,101387.22
2019-02-21T19:42:10.121Z,101387.66
2019-02-21T19:44:17.294Z,101397.70
2019-02-21T19:46:25.423Z,101399.00
2019-02-21T19:48:33.547Z,101402.05
2019-02-21T19:50:41.692Z,101401.64
2019-02-21T19:52:48.522Z,101394.67
2019-02-21T19:54:55.372Z,101423.86
2019-02-21T19:57:02.077Z,101420.97
2019-02-21T19:59:08.759Z,101427.21
2019-02-21T20:01:15.477Z,101430.37
2019-02-21T20:03:22.532Z,101439.57
2019-02-21T20:05:29.594Z,101440.03
2019-02-21T20:07:36.353Z,101442.24
2019-02-21T20:09:43.194Z,101448.36
2019-02-21T20:11:49.932Z,101446.17
2019-02-21T20:13:57.752Z,101452.23
2019-02-21T20:16:05.241Z,101455.71
2019-02-21T20:18:11.765Z,101455.72
2019-02-21T20:20:22.863Z,101462.25
2019-02-21T20:22:29.552Z,101466.58
2019-02-21T20:24:36.213Z,101468.33
2019-02-21T20:26:42.903Z,101466.16
2019-02-21T20:28:51.121Z,101474.83
2019-02-21T20:30:57.892Z,101475.69
2019-02-21T20:33:07.093Z,101479.61
2019-02-21T20:35:14.193Z,101488.70
2019-02-21T20:37:22.322Z,101494.34
2019-02-21T20:39:29.091Z,101493.93
2019-02-21T20:41:37.326Z,101491.32
2019-02-21T20:43:45.390Z,101500.84
2019-02-21T20:45:53.544Z,101499.11
2019-02-21T20:48:00.500Z,101504.76
2019-02-21T20:50:11.345Z,101500.41
2019-02-21T20:52:18.182Z,101506.47
2019-02-21T20:54:24.759Z,101511.67
2019-02-21T20:56:31.873Z,101510.80
2019-02-21T20:58:38.498Z,101511.64
2019-02-21T21:00:46.352Z,101520.28
2019-02-21T21:02:54.328Z,101519.86
2019-02-21T21:05:04.661Z,101524.17
2019-02-21T21:07:11.559Z,101518.95
2019-02-21T21:09:18.064Z,101526.76
2019-02-21T21:11:24.818Z,101527.61
2019-02-21T21:13:31.539Z,101523.70
2019-02-21T21:15:39.736Z,101529.36
2019-02-21T21:17:46.494Z,101531.05
2019-02-21T21:19:52.868Z,101530.16
2019-02-21T21:22:00.964Z,101531.87
2019-02-21T21:24:07.462Z,101537.89
2019-02-21T21:26:14.093Z,101544.78
2019-02-21T21:28:20.849Z,101550.80
2019-02-21T21:30:27.473Z,101556.80
2019-02-21T21:32:36.705Z,101558.46
2019-02-21T21:34:43.335Z,101571.89
2019-02-21T21:36:49.983Z,101567.94
2019-02-21T21:38:56.177Z,101567.53
2019-02-21T21:41:02.639Z,101579.20
2019-02-21T21:43:09.101Z,101581.78
2019-02-21T21:45:20.371Z,101582.17
2019-02-21T21:47:28.275Z,101583.88
2019-02-21T21:49:34.723Z,101594.25
2019-02-21T21:51:41.111Z,101600.27
2019-02-21T21:53:47.779Z,101602.84
2019-02-21T21:55:55.660Z,101602.34
2019-02-21T21:58:03.019Z,101608.33
2019-02-21T22:00:24.166Z,101620.38
2019-02-21T22:02:30.432Z,101629.90
2019-02-21T22:04:55.806Z,101640.26
2019-02-21T22:07:03.311Z,101653.63
2019-02-21T22:09:09.699Z,101655.26
2019-02-21T22:11:17.439Z,101661.23
2019-02-21T22:13:23.638Z,101675.02
2019-02-21T22:15:29.908Z,101679.68
2019-02-21T22:17:36.165Z,101682.48
2019-02-21T22:19:42.523Z,101683.23
2019-02-21T22:21:48.777Z,101689.23
2019-02-21T22:23:55.048Z,101698.48
2019-02-21T22:26:01.229Z,101697.44
2019-02-21T22:28:07.443Z,101711.47
2019-02-21T22:30:18.911Z,101707.07
2019-02-21T22:32:25.185Z,101710.86
2019-02-21T22:34:31.607Z,101712.48
2019-02-21T22:36:37.828Z,101712.39
2019-02-21T22:38:44.065Z,101717.63
2019-02-21T22:40:50.247Z,101719.66
2019-02-21T22:42:56.477Z,101720.06
2019-02-21T22:45:05.331Z,101728.26
2019-02-21T22:47:10.778Z,101733.80
2019-02-21T22:49:16.995Z,101741.01
2019-02-21T22:51:23.170Z,101748.69
2019-02-21T22:53:29.433Z,101756.86
2019-02-21T22:55:35.603Z,101761.41
2019-02-21T22:57:41.857Z,101765.67
2019-02-21T22:59:48.105Z,101774.27
2019-02-21T23:01:55.565Z,101778.09
2019-02-21T23:04:09.019Z,101782.26
2019-02-21T23:06:31.434Z,101780.50
2019-02-21T23:08:47.859Z,101794.23
2019-02-21T23:10:54.017Z,101800.22
2019-02-21T23:13:01.207Z,101800.63
2019-02-21T23:15:09.135Z,101821.29
2019-02-21T23:17:15.253Z,101822.11
2019-02-21T23:19:23.920Z,101828.00
2019-02-21T23:21:29.109Z,101821.04
2019-02-21T23:23:35.577Z,101840.75
2019-02-21T23:25:41.828Z,101841.50
2019-02-21T23:27:47.983Z,101856.22
2019-02-21T23:29:54.149Z,101853.56
2019-02-21T23:32:03.005Z,101867.67
2019-02-21T23:34:17.076Z,101869.38
2019-02-21T23:36:23.273Z,101880.12
2019-02-21T23:38:29.540Z,101886.05
2019-02-21T23:40:37.061Z,101899.45
2019-02-21T23:42:43.381Z,101899.80
2019-02-21T23:44:49.549Z,101899.80
2019-02-21T23:46:55.792Z,101906.70
2019-02-21T23:49:02.073Z,101913.30
2019-02-21T23:51:08.346Z,101909.75
2019-02-21T23:53:14.566Z,101897.89
2019-02-21T23:55:20.660Z,101899.06
2019-02-21T23:57:28.016Z,101910.61
2019-02-21T23:59:34.280Z,101918.64
